sensor_id;sensor_type;location;lat;lon;timestamp;temperature;humidity
680;DHT22;322;48.846;9.230;2023-04-03T00:00:39;3.80;74.20
680;DHT22;322;48.846;9.230;2023-04-03T00:03:06;3.90;73.90
680;DHT22;322;48.846;9.230;2023-04-03T00:05:32;3.80;74.20
680;DHT22;322;48.846;9.230;2023-04-03T00:07:59;3.80;75.30
680;DHT22;322;48.846;9.230;2023-04-03T00:10:28;3.90;76.80
680;DHT22;322;48.846;9.230;2023-04-03T00:12:56;3.90;76.40
680;DHT22;322;48.846;9.230;2023-04-03T00:15:22;3.90;76.20
680;DHT22;322;48.846;9.230;2023-04-03T00:17:49;3.90;75.30
680;DHT22;322;48.846;9.230;2023-04-03T00:20:16;3.90;75.90
680;DHT22;322;48.846;9.230;2023-04-03T00:22:43;4.00;76.30
680;DHT22;322;48.846;9.230;2023-04-03T00:25:10;3.90;76.00
680;DHT22;322;48.846;9.230;2023-04-03T00:27:38;4.10;77.00
680;DHT22;322;48.846;9.230;2023-04-03T00:30:08;4.00;76.20
680;DHT22;322;48.846;9.230;2023-04-03T00:32:36;3.90;75.50
680;DHT22;322;48.846;9.230;2023-04-03T00:35:03;4.00;76.50
680;DHT22;322;48.846;9.230;2023-04-03T00:37:30;4.00;76.90
680;DHT22;322;48.846;9.230;2023-04-03T00:39:57;4.10;77.10
680;DHT22;322;48.846;9.230;2023-04-03T00:42:24;4.10;76.80
680;DHT22;322;48.846;9.230;2023-04-03T00:45:25;4.00;76.20
680;DHT22;322;48.846;9.230;2023-04-03T00:47:52;4.00;77.00
680;DHT22;322;48.846;9.230;2023-04-03T00:50:19;3.90;77.70
680;DHT22;322;48.846;9.230;2023-04-03T00:52:46;4.00;78.90
680;DHT22;322;48.846;9.230;2023-04-03T00:55:15;4.10;77.20
680;DHT22;322;48.846;9.230;2023-04-03T00:57:42;3.90;75.70
680;DHT22;322;48.846;9.230;2023-04-03T01:00:12;3.90;76.10
680;DHT22;322;48.846;9.230;2023-04-03T01:02:41;3.90;77.70
680;DHT22;322;48.846;9.230;2023-04-03T01:05:08;3.80;76.00
680;DHT22;322;48.846;9.230;2023-04-03T01:07:35;3.80;79.10
680;DHT22;322;48.846;9.230;2023-04-03T01:10:05;3.80;76.80
680;DHT22;322;48.846;9.230;2023-04-03T01:12:34;3.70;76.10
680;DHT22;322;48.846;9.230;2023-04-03T01:15:05;3.70;77.50
680;DHT22;322;48.846;9.230;2023-04-03T01:17:34;3.70;77.90
680;DHT22;322;48.846;9.230;2023-04-03T01:23:06;3.50;77.90
680;DHT22;322;48.846;9.230;2023-04-03T01:25:39;3.50;80.20
680;DHT22;322;48.846;9.230;2023-04-03T01:28:08;3.50;80.20
680;DHT22;322;48.846;9.230;2023-04-03T01:30:41;3.50;80.20
680;DHT22;322;48.846;9.230;2023-04-03T01:33:11;3.50;79.10
680;DHT22;322;48.846;9.230;2023-04-03T01:35:37;3.50;79.00
680;DHT22;322;48.846;9.230;2023-04-03T01:38:04;3.50;78.90
680;DHT22;322;48.846;9.230;2023-04-03T01:40:31;3.50;79.20
680;DHT22;322;48.846;9.230;2023-04-03T01:42:58;3.50;79.20
680;DHT22;322;48.846;9.230;2023-04-03T01:45:25;3.50;78.50
680;DHT22;322;48.846;9.230;2023-04-03T01:47:52;3.50;78.00
680;DHT22;322;48.846;9.230;2023-04-03T01:50:20;3.50;79.00
680;DHT22;322;48.846;9.230;2023-04-03T01:52:47;3.50;78.20
680;DHT22;322;48.846;9.230;2023-04-03T01:55:13;3.50;78.60
680;DHT22;322;48.846;9.230;2023-04-03T01:57:40;3.50;78.20
680;DHT22;322;48.846;9.230;2023-04-03T02:00:08;3.50;79.20
680;DHT22;322;48.846;9.230;2023-04-03T02:02:35;3.60;78.20
680;DHT22;322;48.846;9.230;2023-04-03T02:05:02;3.50;76.70
680;DHT22;322;48.846;9.230;2023-04-03T02:07:30;3.40;78.20
680;DHT22;322;48.846;9.230;2023-04-03T02:09:57;3.50;78.20
680;DHT22;322;48.846;9.230;2023-04-03T02:12:24;3.40;78.50
680;DHT22;322;48.846;9.230;2023-04-03T02:14:51;3.40;78.50
680;DHT22;322;48.846;9.230;2023-04-03T02:17:18;3.40;78.30
680;DHT22;322;48.846;9.230;2023-04-03T02:19:44;3.30;77.00
680;DHT22;322;48.846;9.230;2023-04-03T02:22:11;3.20;76.50
680;DHT22;322;48.846;9.230;2023-04-03T02:24:39;3.30;77.20
680;DHT22;322;48.846;9.230;2023-04-03T02:27:06;3.20;76.90
680;DHT22;322;48.846;9.230;2023-04-03T02:29:33;3.30;77.50
680;DHT22;322;48.846;9.230;2023-04-03T02:32:00;3.20;75.90
680;DHT22;322;48.846;9.230;2023-04-03T02:34:27;3.30;74.50
680;DHT22;322;48.846;9.230;2023-04-03T02:36:53;3.30;74.80
680;DHT22;322;48.846;9.230;2023-04-03T02:39:20;3.30;74.10
680;DHT22;322;48.846;9.230;2023-04-03T02:41:48;3.30;73.30
680;DHT22;322;48.846;9.230;2023-04-03T02:44:15;3.30;73.00
680;DHT22;322;48.846;9.230;2023-04-03T02:46:43;3.40;72.60
680;DHT22;322;48.846;9.230;2023-04-03T02:49:10;3.40;72.10
680;DHT22;322;48.846;9.230;2023-04-03T02:51:37;3.40;71.60
680;DHT22;322;48.846;9.230;2023-04-03T02:54:03;3.40;71.40
680;DHT22;322;48.846;9.230;2023-04-03T02:56:30;3.40;71.00
680;DHT22;322;48.846;9.230;2023-04-03T02:58:58;3.40;72.90
680;DHT22;322;48.846;9.230;2023-04-03T03:01:25;3.40;72.10
680;DHT22;322;48.846;9.230;2023-04-03T03:03:53;3.40;72.40
680;DHT22;322;48.846;9.230;2023-04-03T03:06:20;3.40;73.00
680;DHT22;322;48.846;9.230;2023-04-03T03:08:47;3.50;72.80
680;DHT22;322;48.846;9.230;2023-04-03T03:11:14;3.50;71.50
680;DHT22;322;48.846;9.230;2023-04-03T03:13:40;3.50;71.00
680;DHT22;322;48.846;9.230;2023-04-03T03:16:09;3.60;69.30
680;DHT22;322;48.846;9.230;2023-04-03T03:18:36;3.50;70.20
680;DHT22;322;48.846;9.230;2023-04-03T03:21:03;3.50;72.30
680;DHT22;322;48.846;9.230;2023-04-03T03:23:31;3.60;72.70
680;DHT22;322;48.846;9.230;2023-04-03T03:26:00;3.60;72.20
680;DHT22;322;48.846;9.230;2023-04-03T03:28:27;3.60;70.20
680;DHT22;322;48.846;9.230;2023-04-03T03:30:54;3.60;72.60
680;DHT22;322;48.846;9.230;2023-04-03T03:33:22;3.70;71.90
680;DHT22;322;48.846;9.230;2023-04-03T03:35:49;3.60;72.30
680;DHT22;322;48.846;9.230;2023-04-03T03:38:16;3.70;72.70
680;DHT22;322;48.846;9.230;2023-04-03T03:40:43;3.70;72.20
680;DHT22;322;48.846;9.230;2023-04-03T03:43:10;3.80;72.80
680;DHT22;322;48.846;9.230;2023-04-03T03:45:37;3.90;71.50
680;DHT22;322;48.846;9.230;2023-04-03T03:48:04;3.90;71.50
680;DHT22;322;48.846;9.230;2023-04-03T03:50:32;3.90;71.30
680;DHT22;322;48.846;9.230;2023-04-03T03:52:59;3.90;70.50
680;DHT22;322;48.846;9.230;2023-04-03T03:55:26;3.90;71.20
680;DHT22;322;48.846;9.230;2023-04-03T03:57:53;3.80;70.30
680;DHT22;322;48.846;9.230;2023-04-03T04:00:20;3.80;70.70
680;DHT22;322;48.846;9.230;2023-04-03T04:02:46;3.80;71.00
680;DHT22;322;48.846;9.230;2023-04-03T04:05:13;3.80;71.40
680;DHT22;322;48.846;9.230;2023-04-03T04:07:41;3.90;71.70
680;DHT22;322;48.846;9.230;2023-04-03T04:10:09;3.90;70.20
680;DHT22;322;48.846;9.230;2023-04-03T04:12:36;3.90;70.50
680;DHT22;322;48.846;9.230;2023-04-03T04:15:03;3.90;69.20
680;DHT22;322;48.846;9.230;2023-04-03T04:17:30;3.80;70.40
680;DHT22;322;48.846;9.230;2023-04-03T04:19:57;3.80;71.10
680;DHT22;322;48.846;9.230;2023-04-03T04:22:23;3.80;70.80
680;DHT22;322;48.846;9.230;2023-04-03T04:24:52;3.80;70.50
680;DHT22;322;48.846;9.230;2023-04-03T04:27:18;3.80;69.80
680;DHT22;322;48.846;9.230;2023-04-03T04:29:45;3.70;70.30
680;DHT22;322;48.846;9.230;2023-04-03T04:32:12;3.70;68.90
680;DHT22;322;48.846;9.230;2023-04-03T04:34:38;3.70;70.10
680;DHT22;322;48.846;9.230;2023-04-03T04:37:05;3.80;70.40
680;DHT22;322;48.846;9.230;2023-04-03T04:39:32;3.70;69.60
680;DHT22;322;48.846;9.230;2023-04-03T04:42:00;3.80;70.60
680;DHT22;322;48.846;9.230;2023-04-03T04:44:27;3.90;69.30
680;DHT22;322;48.846;9.230;2023-04-03T04:46:54;3.80;67.90
680;DHT22;322;48.846;9.230;2023-04-03T04:49:20;3.80;66.00
680;DHT22;322;48.846;9.230;2023-04-03T04:51:47;3.80;66.50
680;DHT22;322;48.846;9.230;2023-04-03T04:54:14;3.70;67.60
680;DHT22;322;48.846;9.230;2023-04-03T04:56:41;3.70;66.70
680;DHT22;322;48.846;9.230;2023-04-03T04:59:09;3.60;66.90
680;DHT22;322;48.846;9.230;2023-04-03T05:01:35;3.60;67.30
680;DHT22;322;48.846;9.230;2023-04-03T05:04:02;3.60;67.40
680;DHT22;322;48.846;9.230;2023-04-03T05:06:29;3.60;65.90
680;DHT22;322;48.846;9.230;2023-04-03T05:08:57;3.60;66.10
680;DHT22;322;48.846;9.230;2023-04-03T05:11:24;3.60;66.50
680;DHT22;322;48.846;9.230;2023-04-03T05:13:51;3.60;67.10
680;DHT22;322;48.846;9.230;2023-04-03T05:16:19;3.60;66.70
680;DHT22;322;48.846;9.230;2023-04-03T05:18:46;3.60;67.00
680;DHT22;322;48.846;9.230;2023-04-03T05:21:13;3.50;68.30
680;DHT22;322;48.846;9.230;2023-04-03T05:23:40;3.60;66.70
680;DHT22;322;48.846;9.230;2023-04-03T05:26:07;3.50;66.80
680;DHT22;322;48.846;9.230;2023-04-03T05:28:33;3.50;66.60
680;DHT22;322;48.846;9.230;2023-04-03T05:31:00;3.50;66.60
680;DHT22;322;48.846;9.230;2023-04-03T05:33:28;3.50;66.60
680;DHT22;322;48.846;9.230;2023-04-03T05:35:55;3.40;67.30
680;DHT22;322;48.846;9.230;2023-04-03T05:38:22;3.40;66.80
680;DHT22;322;48.846;9.230;2023-04-03T05:40:48;3.40;67.80
680;DHT22;322;48.846;9.230;2023-04-03T05:43:15;3.40;67.10
680;DHT22;322;48.846;9.230;2023-04-03T05:45:43;3.40;66.90
680;DHT22;322;48.846;9.230;2023-04-03T05:48:10;3.40;67.10
680;DHT22;322;48.846;9.230;2023-04-03T05:50:39;3.40;66.80
680;DHT22;322;48.846;9.230;2023-04-03T05:53:10;3.50;66.30
680;DHT22;322;48.846;9.230;2023-04-03T05:55:41;3.50;67.60
680;DHT22;322;48.846;9.230;2023-04-03T05:58:09;3.60;68.80
680;DHT22;322;48.846;9.230;2023-04-03T06:00:35;3.70;68.40
680;DHT22;322;48.846;9.230;2023-04-03T06:03:02;3.70;67.90
680;DHT22;322;48.846;9.230;2023-04-03T06:05:29;3.70;67.20
680;DHT22;322;48.846;9.230;2023-04-03T06:07:57;3.80;66.20
680;DHT22;322;48.846;9.230;2023-04-03T06:10:24;3.80;65.90
680;DHT22;322;48.846;9.230;2023-04-03T06:12:51;3.80;66.20
680;DHT22;322;48.846;9.230;2023-04-03T06:15:18;3.80;66.90
680;DHT22;322;48.846;9.230;2023-04-03T06:17:45;3.90;66.00
680;DHT22;322;48.846;9.230;2023-04-03T06:20:12;3.90;66.90
680;DHT22;322;48.846;9.230;2023-04-03T06:22:39;4.00;65.50
680;DHT22;322;48.846;9.230;2023-04-03T06:25:09;4.10;66.30
680;DHT22;322;48.846;9.230;2023-04-03T06:27:36;4.10;68.20
680;DHT22;322;48.846;9.230;2023-04-03T06:30:04;4.30;67.00
680;DHT22;322;48.846;9.230;2023-04-03T06:32:30;4.30;66.30
680;DHT22;322;48.846;9.230;2023-04-03T06:34:57;4.40;67.00
680;DHT22;322;48.846;9.230;2023-04-03T06:37:24;4.60;65.90
680;DHT22;322;48.846;9.230;2023-04-03T06:39:53;4.80;66.90
680;DHT22;322;48.846;9.230;2023-04-03T06:42:21;4.80;64.20
680;DHT22;322;48.846;9.230;2023-04-03T06:44:48;4.70;65.00
680;DHT22;322;48.846;9.230;2023-04-03T06:47:16;4.90;65.10
680;DHT22;322;48.846;9.230;2023-04-03T06:49:43;5.00;65.70
680;DHT22;322;48.846;9.230;2023-04-03T06:52:10;5.20;64.50
680;DHT22;322;48.846;9.230;2023-04-03T06:54:37;5.20;63.30
680;DHT22;322;48.846;9.230;2023-04-03T06:57:07;5.30;64.30
680;DHT22;322;48.846;9.230;2023-04-03T06:59:36;5.40;64.10
680;DHT22;322;48.846;9.230;2023-04-03T07:02:03;5.50;63.60
680;DHT22;322;48.846;9.230;2023-04-03T07:04:29;5.40;62.70
680;DHT22;322;48.846;9.230;2023-04-03T07:06:56;5.30;63.40
680;DHT22;322;48.846;9.230;2023-04-03T07:09:23;5.40;64.00
680;DHT22;322;48.846;9.230;2023-04-03T07:11:50;5.60;64.90
680;DHT22;322;48.846;9.230;2023-04-03T07:14:17;5.80;62.60
680;DHT22;322;48.846;9.230;2023-04-03T07:16:45;5.80;61.70
680;DHT22;322;48.846;9.230;2023-04-03T07:19:12;6.00;62.50
680;DHT22;322;48.846;9.230;2023-04-03T07:21:38;6.20;62.10
680;DHT22;322;48.846;9.230;2023-04-03T07:24:07;6.10;61.10
680;DHT22;322;48.846;9.230;2023-04-03T07:26:34;6.10;63.10
680;DHT22;322;48.846;9.230;2023-04-03T07:29:01;6.30;61.80
680;DHT22;322;48.846;9.230;2023-04-03T07:31:27;6.30;60.10
680;DHT22;322;48.846;9.230;2023-04-03T07:33:55;6.00;59.40
680;DHT22;322;48.846;9.230;2023-04-03T07:36:22;5.80;60.80
680;DHT22;322;48.846;9.230;2023-04-03T07:38:49;5.80;64.30
680;DHT22;322;48.846;9.230;2023-04-03T07:41:18;6.00;62.00
680;DHT22;322;48.846;9.230;2023-04-03T07:43:47;5.80;61.00
680;DHT22;322;48.846;9.230;2023-04-03T07:46:15;5.70;64.10
680;DHT22;322;48.846;9.230;2023-04-03T07:48:43;5.90;63.80
680;DHT22;322;48.846;9.230;2023-04-03T07:51:12;5.90;62.80
680;DHT22;322;48.846;9.230;2023-04-03T07:53:39;5.70;62.40
680;DHT22;322;48.846;9.230;2023-04-03T07:56:06;5.70;64.10
680;DHT22;322;48.846;9.230;2023-04-03T07:58:33;5.90;62.90
680;DHT22;322;48.846;9.230;2023-04-03T08:01:00;5.90;62.40
680;DHT22;322;48.846;9.230;2023-04-03T08:03:27;5.70;63.40
680;DHT22;322;48.846;9.230;2023-04-03T08:05:53;5.70;63.40
680;DHT22;322;48.846;9.230;2023-04-03T08:08:22;5.70;62.40
680;DHT22;322;48.846;9.230;2023-04-03T08:10:50;5.80;63.10
680;DHT22;322;48.846;9.230;2023-04-03T08:13:18;6.00;63.50
680;DHT22;322;48.846;9.230;2023-04-03T08:15:45;6.30;62.30
680;DHT22;322;48.846;9.230;2023-04-03T08:18:12;6.50;62.90
680;DHT22;322;48.846;9.230;2023-04-03T08:20:39;6.60;60.00
680;DHT22;322;48.846;9.230;2023-04-03T08:23:06;6.60;61.80
680;DHT22;322;48.846;9.230;2023-04-03T08:25:38;6.90;61.30
680;DHT22;322;48.846;9.230;2023-04-03T08:28:05;7.10;58.10
680;DHT22;322;48.846;9.230;2023-04-03T08:30:32;7.30;57.80
680;DHT22;322;48.846;9.230;2023-04-03T08:33:00;7.20;59.40
680;DHT22;322;48.846;9.230;2023-04-03T08:35:27;7.50;59.80
680;DHT22;322;48.846;9.230;2023-04-03T08:37:54;7.70;57.40
680;DHT22;322;48.846;9.230;2023-04-03T08:40:20;7.90;57.10
680;DHT22;322;48.846;9.230;2023-04-03T08:43:01;7.80;57.60
680;DHT22;322;48.846;9.230;2023-04-03T08:45:37;7.90;56.40
680;DHT22;322;48.846;9.230;2023-04-03T08:48:12;7.90;57.90
680;DHT22;322;48.846;9.230;2023-04-03T08:50:44;7.80;57.50
680;DHT22;322;48.846;9.230;2023-04-03T08:53:15;7.70;56.20
680;DHT22;322;48.846;9.230;2023-04-03T08:55:44;7.20;56.90
680;DHT22;322;48.846;9.230;2023-04-03T08:58:15;7.40;58.60
680;DHT22;322;48.846;9.230;2023-04-03T09:00:45;7.80;56.60
680;DHT22;322;48.846;9.230;2023-04-03T09:03:14;7.90;57.00
680;DHT22;322;48.846;9.230;2023-04-03T09:05:45;7.60;54.60
680;DHT22;322;48.846;9.230;2023-04-03T09:08:21;6.90;55.80
680;DHT22;322;48.846;9.230;2023-04-03T09:10:49;6.50;56.90
680;DHT22;322;48.846;9.230;2023-04-03T09:13:26;6.30;58.40
680;DHT22;322;48.846;9.230;2023-04-03T09:15:54;6.50;58.70
680;DHT22;322;48.846;9.230;2023-04-03T09:18:25;6.80;57.10
680;DHT22;322;48.846;9.230;2023-04-03T09:21:00;7.00;57.30
680;DHT22;322;48.846;9.230;2023-04-03T09:23:32;7.40;57.80
680;DHT22;322;48.846;9.230;2023-04-03T09:26:03;7.80;55.90
680;DHT22;322;48.846;9.230;2023-04-03T09:28:37;8.30;56.30
680;DHT22;322;48.846;9.230;2023-04-03T09:31:16;8.80;53.70
680;DHT22;322;48.846;9.230;2023-04-03T09:33:45;7.80;51.50
680;DHT22;322;48.846;9.230;2023-04-03T09:36:12;7.70;55.60
680;DHT22;322;48.846;9.230;2023-04-03T09:38:39;8.00;54.80
680;DHT22;322;48.846;9.230;2023-04-03T09:41:07;8.30;53.80
680;DHT22;322;48.846;9.230;2023-04-03T09:43:51;8.10;55.60
680;DHT22;322;48.846;9.230;2023-04-03T09:46:26;8.50;55.10
680;DHT22;322;48.846;9.230;2023-04-03T09:48:57;8.80;51.50
680;DHT22;322;48.846;9.230;2023-04-03T09:51:26;8.80;52.30
680;DHT22;322;48.846;9.230;2023-04-03T09:53:54;9.00;53.00
680;DHT22;322;48.846;9.230;2023-04-03T09:56:24;8.30;53.20
680;DHT22;322;48.846;9.230;2023-04-03T09:59:07;7.90;53.80
680;DHT22;322;48.846;9.230;2023-04-03T10:01:36;8.00;53.40
680;DHT22;322;48.846;9.230;2023-04-03T10:04:10;7.90;54.00
680;DHT22;322;48.846;9.230;2023-04-03T10:06:39;7.60;55.40
680;DHT22;322;48.846;9.230;2023-04-03T10:09:18;7.40;54.80
680;DHT22;322;48.846;9.230;2023-04-03T10:12:00;7.00;56.90
680;DHT22;322;48.846;9.230;2023-04-03T10:14:32;7.10;56.90
680;DHT22;322;48.846;9.230;2023-04-03T10:17:05;7.50;57.50
680;DHT22;322;48.846;9.230;2023-04-03T10:19:39;7.50;55.90
680;DHT22;322;48.846;9.230;2023-04-03T10:22:16;7.10;54.30
680;DHT22;322;48.846;9.230;2023-04-03T10:24:50;6.60;55.90
680;DHT22;322;48.846;9.230;2023-04-03T10:27:25;6.40;57.00
680;DHT22;322;48.846;9.230;2023-04-03T10:30:01;6.50;55.10
680;DHT22;322;48.846;9.230;2023-04-03T10:32:47;6.60;56.00
680;DHT22;322;48.846;9.230;2023-04-03T10:35:20;6.70;56.00
680;DHT22;322;48.846;9.230;2023-04-03T10:37:59;6.60;56.30
680;DHT22;322;48.846;9.230;2023-04-03T10:40:33;7.00;54.50
680;DHT22;322;48.846;9.230;2023-04-03T10:43:06;7.10;54.60
680;DHT22;322;48.846;9.230;2023-04-03T10:45:48;7.40;54.20
680;DHT22;322;48.846;9.230;2023-04-03T10:48:26;7.30;54.50
680;DHT22;322;48.846;9.230;2023-04-03T10:51:00;7.50;53.00
680;DHT22;322;48.846;9.230;2023-04-03T10:53:36;7.40;54.00
680;DHT22;322;48.846;9.230;2023-04-03T10:56:13;7.80;52.00
680;DHT22;322;48.846;9.230;2023-04-03T10:58:44;8.10;50.90
680;DHT22;322;48.846;9.230;2023-04-03T11:01:16;8.50;50.50
680;DHT22;322;48.846;9.230;2023-04-03T11:03:45;8.50;49.60
680;DHT22;322;48.846;9.230;2023-04-03T11:06:15;8.20;47.20
680;DHT22;322;48.846;9.230;2023-04-03T11:08:45;8.00;47.10
680;DHT22;322;48.846;9.230;2023-04-03T11:11:15;7.90;49.60
680;DHT22;322;48.846;9.230;2023-04-03T11:13:45;8.00;48.00
680;DHT22;322;48.846;9.230;2023-04-03T11:16:19;7.70;48.20
680;DHT22;322;48.846;9.230;2023-04-03T11:18:50;7.30;50.00
680;DHT22;322;48.846;9.230;2023-04-03T11:21:22;7.30;49.20
680;DHT22;322;48.846;9.230;2023-04-03T11:23:51;7.40;50.60
680;DHT22;322;48.846;9.230;2023-04-03T11:26:19;7.50;51.10
680;DHT22;322;48.846;9.230;2023-04-03T11:28:52;7.30;49.90
680;DHT22;322;48.846;9.230;2023-04-03T11:31:31;6.90;50.50
680;DHT22;322;48.846;9.230;2023-04-03T11:34:08;6.60;50.90
680;DHT22;322;48.846;9.230;2023-04-03T11:36:41;6.50;52.20
680;DHT22;322;48.846;9.230;2023-04-03T11:39:18;6.60;54.80
680;DHT22;322;48.846;9.230;2023-04-03T11:41:47;7.00;53.10
680;DHT22;322;48.846;9.230;2023-04-03T11:44:32;7.30;51.60
680;DHT22;322;48.846;9.230;2023-04-03T11:47:03;7.80;52.80
680;DHT22;322;48.846;9.230;2023-04-03T11:49:58;8.00;49.70
680;DHT22;322;48.846;9.230;2023-04-03T11:52:56;7.80;50.80
680;DHT22;322;48.846;9.230;2023-04-03T11:55:43;8.10;49.10
680;DHT22;322;48.846;9.230;2023-04-03T11:58:15;8.60;49.00
680;DHT22;322;48.846;9.230;2023-04-03T12:00:57;9.00;48.70
680;DHT22;322;48.846;9.230;2023-04-03T12:06:53;8.50;49.40
680;DHT22;322;48.846;9.230;2023-04-03T12:12:39;8.50;46.40
680;DHT22;322;48.846;9.230;2023-04-03T12:15:20;7.80;47.60
680;DHT22;322;48.846;9.230;2023-04-03T12:17:47;7.80;49.50
680;DHT22;322;48.846;9.230;2023-04-03T12:20:55;8.30;48.80
680;DHT22;322;48.846;9.230;2023-04-03T12:23:31;8.20;44.60
680;DHT22;322;48.846;9.230;2023-04-03T12:26:18;8.40;47.40
680;DHT22;322;48.846;9.230;2023-04-03T12:28:48;7.90;47.00
680;DHT22;322;48.846;9.230;2023-04-03T12:31:16;7.70;49.30
680;DHT22;322;48.846;9.230;2023-04-03T12:34:04;7.70;50.20
680;DHT22;322;48.846;9.230;2023-04-03T12:36:41;7.40;48.40
680;DHT22;322;48.846;9.230;2023-04-03T12:39:34;7.40;49.50
680;DHT22;322;48.846;9.230;2023-04-03T12:42:15;7.60;49.70
680;DHT22;322;48.846;9.230;2023-04-03T12:44:53;7.70;49.40
680;DHT22;322;48.846;9.230;2023-04-03T12:47:26;8.20;49.40
680;DHT22;322;48.846;9.230;2023-04-03T12:49:54;8.50;49.20
680;DHT22;322;48.846;9.230;2023-04-03T12:52:31;8.70;48.50
680;DHT22;322;48.846;9.230;2023-04-03T12:55:00;8.70;48.60
680;DHT22;322;48.846;9.230;2023-04-03T12:57:29;9.00;45.60
680;DHT22;322;48.846;9.230;2023-04-03T12:59:58;8.70;45.20
680;DHT22;322;48.846;9.230;2023-04-03T13:02:26;8.80;47.40
680;DHT22;322;48.846;9.230;2023-04-03T13:04:56;9.10;46.00
680;DHT22;322;48.846;9.230;2023-04-03T13:07:28;9.10;44.10
680;DHT22;322;48.846;9.230;2023-04-03T13:10:10;8.50;45.70
680;DHT22;322;48.846;9.230;2023-04-03T13:12:47;7.90;47.40
680;DHT22;322;48.846;9.230;2023-04-03T13:15:16;7.30;49.00
680;DHT22;322;48.846;9.230;2023-04-03T13:17:44;7.30;49.60
680;DHT22;322;48.846;9.230;2023-04-03T13:20:19;7.60;48.70
680;DHT22;322;48.846;9.230;2023-04-03T13:22:53;8.00;49.90
680;DHT22;322;48.846;9.230;2023-04-03T13:25:24;8.50;48.70
680;DHT22;322;48.846;9.230;2023-04-03T13:27:51;8.80;46.60
680;DHT22;322;48.846;9.230;2023-04-03T13:30:23;8.70;44.90
680;DHT22;322;48.846;9.230;2023-04-03T13:32:51;8.80;46.50
680;DHT22;322;48.846;9.230;2023-04-03T13:35:32;9.20;45.10
680;DHT22;322;48.846;9.230;2023-04-03T13:38:02;9.30;45.20
680;DHT22;322;48.846;9.230;2023-04-03T13:40:31;9.10;44.70
680;DHT22;322;48.846;9.230;2023-04-03T13:43:03;9.20;41.50
680;DHT22;322;48.846;9.230;2023-04-03T13:45:31;9.50;44.80
680;DHT22;322;48.846;9.230;2023-04-03T13:48:10;10.00;41.70
680;DHT22;322;48.846;9.230;2023-04-03T13:50:58;9.20;41.30
680;DHT22;322;48.846;9.230;2023-04-03T13:53:28;8.70;44.10
680;DHT22;322;48.846;9.230;2023-04-03T13:56:09;8.60;43.60
680;DHT22;322;48.846;9.230;2023-04-03T13:58:37;8.70;44.50
680;DHT22;322;48.846;9.230;2023-04-03T14:01:10;9.10;45.00
680;DHT22;322;48.846;9.230;2023-04-03T14:03:42;9.00;43.90
680;DHT22;322;48.846;9.230;2023-04-03T14:06:11;9.50;47.00
680;DHT22;322;48.846;9.230;2023-04-03T14:08:41;9.90;44.40
680;DHT22;322;48.846;9.230;2023-04-03T14:11:18;10.00;42.90
680;DHT22;322;48.846;9.230;2023-04-03T14:13:50;9.90;43.40
680;DHT22;322;48.846;9.230;2023-04-03T14:16:21;9.90;43.40
680;DHT22;322;48.846;9.230;2023-04-03T14:18:49;9.30;41.30
680;DHT22;322;48.846;9.230;2023-04-03T14:21:18;9.40;43.60
680;DHT22;322;48.846;9.230;2023-04-03T14:23:46;9.50;43.30
680;DHT22;322;48.846;9.230;2023-04-03T14:26:18;9.80;42.10
680;DHT22;322;48.846;9.230;2023-04-03T14:28:47;10.00;41.20
680;DHT22;322;48.846;9.230;2023-04-03T14:31:15;10.20;40.70
680;DHT22;322;48.846;9.230;2023-04-03T14:33:43;10.50;40.60
680;DHT22;322;48.846;9.230;2023-04-03T14:36:13;10.70;39.20
680;DHT22;322;48.846;9.230;2023-04-03T14:38:40;10.40;38.90
680;DHT22;322;48.846;9.230;2023-04-03T14:41:09;10.00;39.30
680;DHT22;322;48.846;9.230;2023-04-03T14:43:38;9.70;42.10
680;DHT22;322;48.846;9.230;2023-04-03T14:46:11;9.70;41.60
680;DHT22;322;48.846;9.230;2023-04-03T14:48:39;9.60;41.80
680;DHT22;322;48.846;9.230;2023-04-03T14:51:05;9.70;42.30
680;DHT22;322;48.846;9.230;2023-04-03T14:53:32;9.70;41.80
680;DHT22;322;48.846;9.230;2023-04-03T14:55:59;9.70;41.40
680;DHT22;322;48.846;9.230;2023-04-03T14:58:27;9.70;42.60
680;DHT22;322;48.846;9.230;2023-04-03T15:00:56;9.70;41.80
680;DHT22;322;48.846;9.230;2023-04-03T15:03:22;10.90;40.90
680;DHT22;322;48.846;9.230;2023-04-03T15:05:49;11.20;37.80
680;DHT22;322;48.846;9.230;2023-04-03T15:08:21;11.10;36.80
680;DHT22;322;48.846;9.230;2023-04-03T15:10:49;10.90;39.80
680;DHT22;322;48.846;9.230;2023-04-03T15:13:18;11.20;39.80
680;DHT22;322;48.846;9.230;2023-04-03T15:15:46;11.30;36.50
680;DHT22;322;48.846;9.230;2023-04-03T15:18:19;10.90;38.70
680;DHT22;322;48.846;9.230;2023-04-03T15:20:47;10.40;38.80
680;DHT22;322;48.846;9.230;2023-04-03T15:23:15;9.90;40.60
680;DHT22;322;48.846;9.230;2023-04-03T15:25:43;9.50;41.20
680;DHT22;322;48.846;9.230;2023-04-03T15:28:15;9.30;41.30
680;DHT22;322;48.846;9.230;2023-04-03T15:30:43;9.10;40.20
680;DHT22;322;48.846;9.230;2023-04-03T15:33:10;9.50;39.70
680;DHT22;322;48.846;9.230;2023-04-03T15:35:38;9.80;39.80
680;DHT22;322;48.846;9.230;2023-04-03T15:38:04;10.70;39.00
680;DHT22;322;48.846;9.230;2023-04-03T15:40:31;11.90;34.20
680;DHT22;322;48.846;9.230;2023-04-03T15:42:58;11.40;33.10
680;DHT22;322;48.846;9.230;2023-04-03T15:45:25;11.30;35.90
680;DHT22;322;48.846;9.230;2023-04-03T15:47:54;11.60;37.80
680;DHT22;322;48.846;9.230;2023-04-03T15:50:21;12.70;36.60
680;DHT22;322;48.846;9.230;2023-04-03T15:52:53;14.40;34.70
680;DHT22;322;48.846;9.230;2023-04-03T15:55:21;15.60;31.10
680;DHT22;322;48.846;9.230;2023-04-03T15:57:48;15.90;29.50
680;DHT22;322;48.846;9.230;2023-04-03T16:00:15;16.00;30.10
680;DHT22;322;48.846;9.230;2023-04-03T16:02:46;15.60;30.40
680;DHT22;322;48.846;9.230;2023-04-03T16:05:14;14.30;31.50
680;DHT22;322;48.846;9.230;2023-04-03T16:07:43;12.80;34.60
680;DHT22;322;48.846;9.230;2023-04-03T16:10:12;11.30;35.90
680;DHT22;322;48.846;9.230;2023-04-03T16:12:40;10.30;38.20
680;DHT22;322;48.846;9.230;2023-04-03T16:15:07;9.50;40.40
680;DHT22;322;48.846;9.230;2023-04-03T16:17:35;8.90;40.40
680;DHT22;322;48.846;9.230;2023-04-03T16:20:04;8.40;42.50
680;DHT22;322;48.846;9.230;2023-04-03T16:22:31;8.10;45.40
680;DHT22;322;48.846;9.230;2023-04-03T16:24:58;8.20;44.30
680;DHT22;322;48.846;9.230;2023-04-03T16:27:26;8.40;43.80
680;DHT22;322;48.846;9.230;2023-04-03T16:29:54;8.80;42.20
680;DHT22;322;48.846;9.230;2023-04-03T16:32:22;8.80;41.30
680;DHT22;322;48.846;9.230;2023-04-03T16:34:50;9.10;42.30
680;DHT22;322;48.846;9.230;2023-04-03T16:37:16;9.30;40.00
680;DHT22;322;48.846;9.230;2023-04-03T16:39:43;9.10;40.20
680;DHT22;322;48.846;9.230;2023-04-03T16:42:10;8.70;40.00
680;DHT22;322;48.846;9.230;2023-04-03T16:44:38;8.30;41.80
680;DHT22;322;48.846;9.230;2023-04-03T16:47:06;7.90;42.40
680;DHT22;322;48.846;9.230;2023-04-03T16:49:33;7.50;42.40
680;DHT22;322;48.846;9.230;2023-04-03T16:52:00;7.30;42.40
680;DHT22;322;48.846;9.230;2023-04-03T16:54:27;7.10;43.60
680;DHT22;322;48.846;9.230;2023-04-03T16:56:54;7.10;44.70
680;DHT22;322;48.846;9.230;2023-04-03T16:59:21;7.00;44.40
680;DHT22;322;48.846;9.230;2023-04-03T17:01:49;6.80;43.20
680;DHT22;322;48.846;9.230;2023-04-03T17:04:16;6.70;44.70
680;DHT22;322;48.846;9.230;2023-04-03T17:06:43;6.60;44.00
680;DHT22;322;48.846;9.230;2023-04-03T17:09:11;6.40;45.70
680;DHT22;322;48.846;9.230;2023-04-03T17:11:38;6.30;46.40
680;DHT22;322;48.846;9.230;2023-04-03T17:14:05;6.30;47.10
680;DHT22;322;48.846;9.230;2023-04-03T17:16:34;6.30;46.40